createdAt,value
2017-12-04T00:00:51.307Z,49.50
2017-12-04T00:01:53.868Z,53.00
2017-12-04T00:02:56.633Z,59.47
2017-12-04T00:03:59.164Z,53.38
2017-12-04T00:05:02.497Z,51.22
2017-12-04T00:06:05.066Z,57.95
2017-12-04T00:07:08.752Z,62.60
2017-12-04T00:08:11.337Z,50.33
2017-12-04T00:09:14.090Z,56.08
2017-12-04T00:10:16.654Z,64.37
2017-12-04T00:11:19.385Z,54.00
2017-12-04T00:12:22.694Z,66.43
2017-12-04T00:13:25.682Z,61.95
2017-12-04T00:14:28.226Z,57.92
2017-12-04T00:15:31.645Z,47.25
2017-12-04T00:16:34.202Z,47.72
2017-12-04T00:17:36.989Z,45.85
2017-12-04T00:18:39.542Z,45.45
2017-12-04T00:19:42.305Z,46.25
2017-12-04T00:20:44.904Z,58.63
2017-12-04T00:21:47.628Z,56.55
2017-12-04T00:22:50.949Z,52.15
2017-12-04T00:23:53.596Z,60.97
2017-12-04T00:24:56.183Z,57.97
2017-12-04T00:25:59.843Z,44.88
2017-12-04T00:27:03.150Z,56.88
2017-12-04T00:28:05.815Z,49.78
2017-12-04T00:29:08.381Z,55.00
2017-12-04T00:30:11.154Z,74.03
2017-12-04T00:31:13.726Z,52.53
2017-12-04T00:32:16.478Z,55.33
2017-12-04T00:33:19.050Z,63.50
2017-12-04T00:34:21.832Z,47.80
2017-12-04T00:35:24.736Z,54.00
2017-12-04T00:36:27.488Z,50.80
2017-12-04T00:37:30.041Z,55.00
2017-12-04T00:38:32.802Z,51.53
2017-12-04T00:39:36.108Z,52.35
2017-12-04T00:40:38.740Z,53.35
2017-12-04T00:41:42.077Z,59.20
2017-12-04T00:42:45.747Z,70.53
2017-12-04T00:43:48.306Z,61.55
2017-12-04T00:44:50.954Z,54.92
2017-12-04T00:45:54.266Z,55.63
2017-12-04T00:46:57.036Z,55.55
2017-12-04T00:47:59.604Z,64.65
2017-12-04T00:49:02.268Z,57.90
2017-12-04T00:50:04.813Z,50.63
2017-12-04T00:51:08.415Z,59.33
2017-12-04T00:52:11.811Z,54.22
2017-12-04T00:53:14.476Z,57.00
2017-12-04T00:54:17.058Z,58.30
2017-12-04T00:55:19.832Z,54.60
2017-12-04T00:56:22.509Z,53.83
2017-12-04T00:57:25.797Z,54.72
2017-12-04T00:58:28.435Z,44.25
2017-12-04T00:59:31.735Z,59.88
2017-12-04T01:00:34.265Z,44.97
2017-12-04T01:01:37.661Z,58.13
2017-12-04T01:02:40.982Z,53.85
2017-12-04T01:03:43.639Z,56.03
2017-12-04T01:04:46.191Z,49.15
2017-12-04T01:05:48.956Z,58.05
2017-12-04T01:06:52.266Z,54.63
2017-12-04T01:07:54.973Z,62.08
2017-12-04T01:08:58.336Z,51.28
2017-12-04T01:10:00.889Z,54.65
2017-12-04T01:11:03.432Z,51.42
2017-12-04T01:12:06.844Z,49.38
2017-12-04T01:13:09.462Z,56.13
2017-12-04T01:14:12.158Z,55.35
2017-12-04T01:15:15.474Z,59.08
2017-12-04T01:16:18.233Z,44.65
2017-12-04T01:17:20.781Z,54.55
2017-12-04T01:18:23.783Z,53.80
2017-12-04T01:19:26.595Z,60.95
2017-12-04T01:20:29.192Z,51.65
2017-12-04T01:21:32.909Z,64.90
2017-12-04T01:22:35.774Z,56.90
2017-12-04T01:23:38.306Z,71.53
2017-12-04T01:24:41.119Z,50.15
2017-12-04T01:25:43.652Z,50.53
2017-12-04T01:26:47.080Z,53.15
2017-12-04T01:27:49.640Z,48.75
2017-12-04T01:28:53.310Z,55.70
2017-12-04T01:29:56.605Z,59.95
2017-12-04T01:30:59.317Z,46.35
2017-12-04T01:32:01.853Z,43.97
2017-12-04T01:33:04.829Z,56.20
2017-12-04T01:34:08.198Z,55.03
2017-12-04T01:35:11.807Z,54.78
2017-12-04T01:36:14.680Z,56.88
2017-12-04T01:37:17.440Z,53.58
2017-12-04T01:38:19.988Z,46.60
2017-12-04T01:39:23.388Z,56.63
2017-12-04T01:40:26.671Z,54.63
2017-12-04T01:41:29.364Z,59.05
2017-12-04T01:42:31.908Z,69.20
2017-12-04T01:43:35.413Z,58.65
2017-12-04T01:44:37.993Z,79.47
2017-12-04T01:45:40.555Z,54.85
2017-12-04T01:46:43.118Z,53.78
2017-12-04T01:47:46.018Z,73.03
2017-12-04T01:48:48.659Z,56.13
2017-12-04T01:49:51.308Z,62.03
2017-12-04T01:50:54.175Z,61.67
2017-12-04T01:51:57.565Z,55.47
2017-12-04T01:53:00.875Z,53.95
2017-12-04T01:54:03.515Z,68.95
2017-12-04T01:55:07.084Z,62.03
2017-12-04T01:56:10.828Z,72.95
2017-12-04T01:57:13.415Z,54.80
2017-12-04T01:58:16.045Z,64.10
2017-12-04T01:59:18.637Z,59.92
2017-12-04T02:00:21.394Z,55.63
2017-12-04T02:01:23.942Z,54.72
2017-12-04T02:02:28.621Z,55.60
2017-12-04T02:03:31.165Z,57.10
2017-12-04T02:04:34.867Z,45.80
2017-12-04T02:05:37.412Z,52.50
2017-12-04T02:06:41.996Z,58.05
2017-12-04T02:07:45.326Z,63.50
2017-12-04T02:08:48.144Z,56.30
2017-12-04T02:09:51.470Z,65.87
2017-12-04T02:10:58.198Z,57.53
2017-12-04T02:12:01.493Z,54.22
2017-12-04T02:13:06.273Z,57.55
2017-12-04T02:14:09.725Z,45.53
2017-12-04T02:15:12.670Z,49.20
2017-12-04T02:16:15.228Z,54.40
2017-12-04T02:17:18.893Z,54.45
2017-12-04T02:18:21.443Z,53.30
2017-12-04T02:19:25.142Z,61.40
2017-12-04T02:20:27.684Z,47.95
2017-12-04T02:21:30.431Z,48.40
2017-12-04T02:22:33.756Z,55.60
2017-12-04T02:23:37.617Z,47.00
2017-12-04T02:24:40.937Z,47.50
2017-12-04T02:25:43.586Z,61.53
2017-12-04T02:26:46.123Z,49.78
2017-12-04T02:27:49.522Z,54.40
2017-12-04T02:28:52.820Z,45.75
2017-12-04T02:29:55.475Z,59.55
2017-12-04T02:30:58.760Z,54.20
2017-12-04T02:32:02.411Z,51.33
2017-12-04T02:33:04.945Z,45.50
2017-12-04T02:34:07.704Z,53.72
2017-12-04T02:35:10.421Z,53.70
2017-12-04T02:36:13.949Z,60.50
2017-12-04T02:37:16.631Z,48.85
2017-12-04T02:38:19.299Z,45.12
2017-12-04T02:39:21.842Z,47.42
2017-12-04T02:40:25.365Z,51.75
2017-12-04T02:41:27.910Z,50.05
2017-12-04T02:42:31.502Z,56.08
2017-12-04T02:43:34.052Z,51.37
2017-12-04T02:44:37.480Z,52.30
2017-12-04T02:45:40.036Z,48.65
2017-12-04T02:46:43.734Z,39.88
2017-12-04T02:47:46.281Z,57.53
2017-12-04T02:48:49.676Z,56.00
2017-12-04T02:49:52.209Z,52.50
2017-12-04T02:51:00.248Z,51.22
2017-12-04T02:52:02.820Z,50.15
2017-12-04T02:53:05.592Z,47.28
2017-12-04T02:54:08.366Z,45.08
2017-12-04T02:55:11.239Z,54.55
2017-12-04T02:56:14.988Z,44.15
2017-12-04T02:57:19.601Z,52.28
2017-12-04T02:58:22.140Z,55.95
2017-12-04T02:59:25.734Z,54.20
2017-12-04T03:00:28.264Z,50.83
2017-12-04T03:01:30.912Z,53.75
2017-12-04T03:02:33.468Z,53.55
2017-12-04T03:03:36.870Z,46.33
2017-12-04T03:04:39.429Z,52.53
2017-12-04T03:05:42.837Z,40.90
2017-12-04T03:06:45.388Z,43.87
2017-12-04T03:07:48.787Z,40.60
2017-12-04T03:08:51.310Z,41.42
2017-12-04T03:09:54.137Z,40.90
2017-12-04T03:10:56.683Z,46.00
2017-12-04T03:11:59.581Z,50.40
2017-12-04T03:13:02.129Z,46.72
2017-12-04T03:14:04.788Z,46.40
2017-12-04T03:15:08.403Z,43.42
2017-12-04T03:16:11.096Z,48.22
2017-12-04T03:17:13.622Z,36.13
2017-12-04T03:18:16.892Z,43.83
2017-12-04T03:19:20.189Z,48.33
2017-12-04T03:20:23.878Z,45.35
2017-12-04T03:21:26.423Z,42.53
2017-12-04T03:22:29.840Z,37.17
2017-12-04T03:23:32.383Z,41.85
2017-12-04T03:24:35.697Z,43.08
2017-12-04T03:25:38.222Z,36.63
2017-12-04T03:26:40.864Z,36.13
2017-12-04T03:27:43.404Z,37.55
2017-12-04T03:28:46.148Z,42.67
2017-12-04T03:29:49.453Z,34.08
2017-12-04T03:30:52.099Z,32.78
2017-12-04T03:31:55.443Z,44.25
2017-12-04T03:32:57.997Z,29.42
2017-12-04T03:34:00.694Z,35.53
2017-12-04T03:35:03.393Z,32.65
2017-12-04T03:36:06.682Z,36.55
2017-12-04T03:37:10.529Z,39.72
2017-12-04T03:38:13.078Z,35.75
2017-12-04T03:39:16.853Z,33.38
2017-12-04T03:40:19.393Z,27.95
2017-12-04T03:41:22.809Z,39.95
2017-12-04T03:42:25.428Z,35.83
2017-12-04T03:43:29.108Z,35.28
2017-12-04T03:44:31.655Z,28.50
2017-12-04T03:45:35.308Z,43.25
2017-12-04T03:46:37.852Z,44.42
2017-12-04T03:47:40.662Z,37.35
2017-12-04T03:48:43.226Z,36.20
2017-12-04T03:49:46.003Z,33.92
2017-12-04T03:50:48.525Z,43.53
2017-12-04T03:51:51.324Z,32.78
2017-12-04T03:52:54.627Z,34.85
2017-12-04T03:53:57.286Z,38.33
2017-12-04T03:54:59.849Z,46.35
2017-12-04T03:56:03.263Z,35.80
2017-12-04T03:57:05.896Z,35.30
2017-12-04T03:58:09.514Z,31.77
2017-12-04T03:59:12.136Z,47.42
2017-12-04T04:00:15.884Z,31.17
2017-12-04T04:01:18.407Z,34.13
2017-12-04T04:02:22.972Z,37.40
2017-12-04T04:03:25.528Z,52.85
2017-12-04T04:04:28.275Z,41.15
2017-12-04T04:05:30.830Z,42.03
2017-12-04T04:06:34.229Z,35.75
2017-12-04T04:07:36.771Z,37.33
2017-12-04T04:08:40.213Z,42.80
2017-12-04T04:09:42.758Z,38.70
2017-12-04T04:10:46.852Z,36.95
2017-12-04T04:11:49.411Z,41.58
2017-12-04T04:12:53.019Z,28.12
2017-12-04T04:13:55.573Z,45.42
2017-12-04T04:14:58.968Z,29.48
2017-12-04T04:16:01.525Z,43.33
2017-12-04T04:17:04.913Z,40.60
2017-12-04T04:18:08.200Z,35.42
2017-12-04T04:19:11.376Z,33.30
2017-12-04T04:20:14.704Z,31.60
2017-12-04T04:21:17.241Z,42.58
2017-12-04T04:22:20.133Z,35.90
2017-12-04T04:23:22.675Z,32.05
2017-12-04T04:24:25.458Z,41.70
2017-12-04T04:25:27.991Z,43.05
2017-12-04T04:26:30.813Z,37.75
2017-12-04T04:27:33.388Z,32.60
2017-12-04T04:28:36.125Z,33.75
2017-12-04T04:29:38.682Z,38.42
2017-12-04T04:30:42.112Z,31.23
2017-12-04T04:31:44.650Z,38.20
2017-12-04T04:32:48.328Z,37.13
2017-12-04T04:33:51.660Z,38.30
2017-12-04T04:34:54.276Z,43.78
2017-12-04T04:35:57.560Z,35.60
2017-12-04T04:37:01.157Z,41.92
2017-12-04T04:38:03.723Z,32.92
2017-12-04T04:39:07.114Z,29.92
2017-12-04T04:40:10.501Z,39.25
2017-12-04T04:41:13.078Z,48.83
2017-12-04T04:42:15.596Z,34.08
2017-12-04T04:43:19.014Z,29.35
2017-12-04T04:44:22.323Z,36.42
2017-12-04T04:45:24.970Z,50.85
2017-12-04T04:46:28.301Z,35.88
2017-12-04T04:47:30.920Z,45.90
2017-12-04T04:48:34.229Z,41.75
2017-12-04T04:49:38.338Z,39.28
2017-12-04T04:50:40.882Z,43.67
2017-12-04T04:51:43.441Z,35.53
2017-12-04T04:52:46.833Z,36.22
2017-12-04T04:53:49.411Z,32.90
2017-12-04T04:54:51.958Z,50.17
2017-12-04T04:55:55.355Z,39.60
2017-12-04T04:56:57.905Z,25.27
2017-12-04T04:58:01.336Z,38.25
2017-12-04T04:59:03.886Z,22.92
2017-12-04T05:00:06.641Z,45.67
2017-12-04T05:01:09.238Z,48.55
2017-12-04T05:02:12.940Z,36.30
2017-12-04T05:03:15.519Z,39.70
2017-12-04T05:04:18.279Z,35.60
2017-12-04T05:05:20.809Z,25.02
2017-12-04T05:06:23.721Z,46.20
2017-12-04T05:07:26.283Z,37.25
2017-12-04T05:08:28.906Z,41.35
2017-12-04T05:09:32.256Z,49.20
2017-12-04T05:10:34.887Z,34.42
2017-12-04T05:11:37.439Z,37.13
2017-12-04T05:12:40.885Z,41.78
2017-12-04T05:13:43.492Z,36.22
2017-12-04T05:14:46.569Z,31.12
2017-12-04T05:15:49.880Z,33.63
2017-12-04T05:16:52.756Z,27.58
2017-12-04T05:17:55.346Z,38.42
2017-12-04T05:18:58.118Z,33.10
2017-12-04T05:20:00.675Z,34.05
2017-12-04T05:21:03.455Z,35.58
2017-12-04T05:22:06.026Z,35.88
2017-12-04T05:23:08.786Z,43.65
2017-12-04T05:24:11.339Z,36.70
2017-12-04T05:25:14.125Z,32.78
2017-12-04T05:26:16.695Z,34.90
2017-12-04T05:27:20.877Z,36.17
2017-12-04T05:28:23.473Z,49.08
2017-12-04T05:29:26.310Z,31.62
2017-12-04T05:30:28.986Z,35.80
2017-12-04T05:31:31.757Z,54.40
2017-12-04T05:32:34.329Z,35.15
2017-12-04T05:33:37.021Z,31.10
2017-12-04T05:34:39.577Z,25.88
2017-12-04T05:35:42.328Z,41.78
2017-12-04T05:36:44.875Z,39.85
2017-12-04T05:37:47.649Z,35.85
2017-12-04T05:38:51.145Z,36.33
2017-12-04T05:39:54.009Z,49.55
2017-12-04T05:40:57.317Z,35.88
2017-12-04T05:41:59.894Z,37.90
2017-12-04T05:43:02.432Z,45.20
2017-12-04T05:44:07.072Z,43.40
2017-12-04T05:45:09.756Z,35.65
2017-12-04T05:46:12.399Z,25.12
2017-12-04T05:47:14.929Z,30.65
2017-12-04T05:48:18.336Z,36.08
2017-12-04T05:49:21.654Z,46.60
2017-12-04T05:50:24.416Z,31.23
2017-12-04T05:51:26.952Z,52.67
2017-12-04T05:52:30.555Z,44.20
2017-12-04T05:53:33.081Z,36.17
2017-12-04T05:54:35.930Z,34.42
2017-12-04T05:55:38.589Z,37.63
2017-12-04T05:56:41.304Z,39.15
2017-12-04T05:57:44.638Z,42.35
2017-12-04T05:58:47.194Z,51.22
2017-12-04T05:59:49.729Z,30.58
2017-12-04T06:00:53.171Z,44.35
2017-12-04T06:01:55.733Z,37.28
2017-12-04T06:02:59.398Z,43.00
2017-12-04T06:04:01.946Z,36.50
2017-12-04T06:05:05.689Z,34.13
2017-12-04T06:06:08.252Z,39.08
2017-12-04T06:07:11.045Z,41.17
2017-12-04T06:08:13.603Z,36.25
2017-12-04T06:09:16.333Z,35.65
2017-12-04T06:10:19.653Z,41.28
2017-12-04T06:11:22.315Z,37.10
2017-12-04T06:12:24.875Z,37.50
2017-12-04T06:13:27.625Z,33.22
2017-12-04T06:14:30.921Z,34.75
2017-12-04T06:15:33.593Z,42.08
2017-12-04T06:16:36.172Z,42.72
2017-12-04T06:17:40.307Z,51.30
2017-12-04T06:18:42.861Z,33.33
2017-12-04T06:19:46.400Z,45.88
2017-12-04T06:20:49.466Z,33.03
2017-12-04T06:21:52.986Z,32.22
2017-12-04T06:22:55.634Z,34.33
2017-12-04T06:23:59.293Z,32.85
2017-12-04T06:25:01.845Z,28.95
2017-12-04T06:26:04.748Z,37.35
2017-12-04T06:27:08.806Z,40.03
2017-12-04T06:28:11.492Z,41.67
2017-12-04T06:29:14.253Z,45.63
2017-12-04T06:30:17.092Z,35.88
2017-12-04T06:31:20.395Z,34.42
2017-12-04T06:32:23.033Z,50.55
2017-12-04T06:33:26.340Z,31.67
2017-12-04T06:34:29.036Z,37.80
2017-12-04T06:35:31.579Z,32.50
2017-12-04T06:36:34.362Z,25.75
2017-12-04T06:37:36.948Z,43.33
2017-12-04T06:38:39.520Z,33.63
2017-12-04T06:39:42.108Z,51.53
2017-12-04T06:40:44.729Z,37.20
2017-12-04T06:41:47.286Z,45.88
2017-12-04T06:42:50.667Z,36.17
2017-12-04T06:43:54.176Z,34.22
2017-12-04T06:44:56.949Z,34.35
2017-12-04T06:45:59.501Z,42.30
2017-12-04T06:47:02.261Z,37.22
2017-12-04T06:48:05.576Z,45.47
2017-12-04T06:49:08.243Z,32.92
2017-12-04T06:50:11.036Z,41.25
2017-12-04T06:51:14.009Z,34.47
2017-12-04T06:52:16.550Z,39.95
2017-12-04T06:53:19.219Z,39.20
2017-12-04T06:54:21.776Z,34.50
2017-12-04T06:55:24.548Z,46.95
2017-12-04T06:56:27.847Z,37.60
2017-12-04T06:57:30.518Z,32.88
2017-12-04T06:58:33.066Z,34.35
2017-12-04T06:59:35.914Z,33.47
2017-12-04T07:00:39.227Z,37.00
2017-12-04T07:01:41.894Z,47.42
2017-12-04T07:02:45.189Z,34.60
2017-12-04T07:03:47.742Z,44.63
2017-12-04T07:04:50.295Z,37.30
2017-12-04T07:05:53.700Z,34.92
2017-12-04T07:06:56.277Z,51.30
2017-12-04T07:07:59.069Z,31.00
2017-12-04T07:09:01.606Z,34.05
2017-12-04T07:10:04.375Z,33.95
2017-12-04T07:11:07.677Z,31.48
2017-12-04T07:12:10.505Z,42.67
2017-12-04T07:13:14.144Z,36.85
2017-12-04T07:14:16.915Z,44.38
2017-12-04T07:15:19.451Z,41.47
2017-12-04T07:16:22.860Z,40.03
2017-12-04T07:17:25.738Z,42.03
2017-12-04T07:18:29.424Z,37.90
2017-12-04T07:19:31.948Z,30.85
2017-12-04T07:20:34.767Z,38.78
2017-12-04T07:21:37.292Z,31.48
2017-12-04T07:22:41.605Z,35.20
2017-12-04T07:23:44.912Z,35.63
2017-12-04T07:24:47.581Z,34.17
2017-12-04T07:25:50.106Z,26.65
2017-12-04T07:26:52.899Z,33.70
2017-12-04T07:27:55.433Z,44.72
2017-12-04T07:28:58.259Z,47.78
2017-12-04T07:30:01.565Z,41.97
2017-12-04T07:31:04.193Z,33.90
2017-12-04T07:32:06.718Z,33.75
2017-12-04T07:33:10.613Z,31.83
2017-12-04T07:34:13.209Z,31.92
2017-12-04T07:35:16.052Z,33.67
2017-12-04T07:36:18.604Z,26.80
2017-12-04T07:37:21.132Z,30.30
2017-12-04T07:38:24.429Z,29.73
2017-12-04T07:39:28.333Z,40.60
2017-12-04T07:40:30.997Z,37.75
2017-12-04T07:41:34.306Z,21.35
2017-12-04T07:42:37.084Z,27.05
2017-12-04T07:43:39.627Z,37.17
2017-12-04T07:44:42.330Z,27.62
2017-12-04T07:45:44.892Z,27.02
2017-12-04T07:46:47.625Z,30.58
2017-12-04T07:47:51.199Z,23.58
2017-12-04T07:48:54.497Z,32.25
2017-12-04T07:49:57.798Z,28.27
2017-12-04T07:51:02.626Z,30.75
2017-12-04T07:52:05.152Z,25.30
2017-12-04T07:53:08.044Z,40.40
2017-12-04T07:54:12.681Z,36.28
2017-12-04T07:55:15.570Z,32.33
2017-12-04T07:56:18.942Z,31.25
2017-12-04T07:57:21.685Z,38.00
2017-12-04T07:58:24.991Z,31.92
2017-12-04T07:59:27.688Z,39.70
2017-12-04T08:00:30.210Z,25.77
2017-12-04T08:01:33.580Z,28.23
2017-12-04T08:02:36.078Z,29.23
2017-12-04T08:03:38.613Z,38.67
2017-12-04T08:04:41.920Z,35.38
2017-12-04T08:05:44.595Z,28.27
2017-12-04T08:06:47.191Z,31.55
2017-12-04T08:07:49.907Z,34.83
2017-12-04T08:08:53.205Z,31.65
2017-12-04T08:09:56.782Z,36.63
2017-12-04T08:11:00.204Z,24.75
2017-12-04T08:12:02.761Z,27.10
2017-12-04T08:13:05.293Z,27.58
2017-12-04T08:14:08.126Z,24.73
2017-12-04T08:15:10.907Z,23.25
2017-12-04T08:16:13.821Z,44.03
2017-12-04T08:17:17.287Z,22.40
2017-12-04T08:18:21.577Z,23.12
2017-12-04T08:19:24.120Z,29.35
2017-12-04T08:20:26.949Z,26.75
2017-12-04T08:21:29.556Z,42.03
2017-12-04T08:22:32.251Z,17.33
2017-12-04T08:23:34.816Z,33.17
2017-12-04T08:24:37.652Z,34.90
2017-12-04T08:25:40.257Z,22.60
2017-12-04T08:26:42.927Z,24.42
2017-12-04T08:27:45.488Z,24.60
2017-12-04T08:28:48.372Z,19.55
2017-12-04T08:29:50.924Z,30.05
2017-12-04T08:30:53.632Z,20.80
2017-12-04T08:31:56.168Z,29.75
2017-12-04T08:32:58.883Z,18.58
2017-12-04T08:34:01.451Z,25.98
2017-12-04T08:35:05.817Z,18.50
2017-12-04T08:36:08.725Z,29.50
2017-12-04T08:37:12.274Z,34.53
2017-12-04T08:38:15.030Z,21.40
2017-12-04T08:39:18.623Z,27.92
2017-12-04T08:40:21.169Z,23.83
2017-12-04T08:41:24.490Z,27.23
2017-12-04T08:42:27.055Z,25.42
2017-12-04T08:43:29.585Z,18.73
2017-12-04T08:44:32.275Z,42.67
2017-12-04T08:45:35.436Z,22.73
2017-12-04T08:46:37.968Z,19.55
2017-12-04T08:47:41.587Z,24.52
2017-12-04T08:48:45.126Z,18.95
2017-12-04T08:49:48.486Z,29.52
2017-12-04T08:50:51.035Z,22.27
2017-12-04T08:51:53.726Z,23.17
2017-12-04T08:52:56.354Z,27.35
2017-12-04T08:53:59.089Z,27.65
2017-12-04T08:55:01.661Z,13.90
2017-12-04T08:56:04.401Z,25.48
2017-12-04T08:57:07.686Z,16.80
2017-12-04T08:58:10.452Z,22.52
2017-12-04T08:59:13.433Z,21.33
2017-12-04T09:00:15.987Z,22.00
2017-12-04T09:01:18.577Z,27.42
2017-12-04T09:02:21.444Z,13.65
2017-12-04T09:03:24.000Z,26.37
2017-12-04T09:04:26.761Z,21.90
2017-12-04T09:05:29.509Z,12.75
2017-12-04T09:06:34.172Z,25.70
2017-12-04T09:07:36.716Z,16.12
2017-12-04T09:08:39.485Z,20.62
2017-12-04T09:09:42.794Z,19.62
2017-12-04T09:10:45.329Z,17.50
2017-12-04T09:11:48.633Z,13.65
2017-12-04T09:12:52.413Z,20.37
2017-12-04T09:13:55.722Z,16.48
2017-12-04T09:14:58.664Z,16.58
2017-12-04T09:16:01.221Z,17.08
2017-12-04T09:17:03.762Z,16.92
2017-12-04T09:18:06.418Z,15.82
2017-12-04T09:19:08.985Z,17.95
2017-12-04T09:20:11.767Z,14.15
2017-12-04T09:21:14.409Z,12.55
2017-12-04T09:22:17.059Z,15.25
2017-12-04T09:23:19.870Z,14.50
2017-12-04T09:24:22.439Z,13.62
2017-12-04T09:25:25.013Z,14.43
2017-12-04T09:26:27.546Z,19.67
2017-12-04T09:27:30.323Z,11.65
2017-12-04T09:28:32.849Z,11.88
2017-12-04T09:29:35.978Z,13.25
2017-12-04T09:30:39.447Z,14.70
2017-12-04T09:31:42.935Z,17.70
2017-12-04T09:32:45.603Z,14.75
2017-12-04T09:33:49.119Z,19.60
2017-12-04T09:34:51.934Z,21.48
2017-12-04T09:35:56.098Z,20.62
2017-12-04T09:36:59.065Z,13.15
2017-12-04T09:38:01.624Z,14.95
2017-12-04T09:39:04.405Z,7.28
2017-12-04T09:40:07.033Z,12.75
2017-12-04T09:41:09.844Z,10.02
2017-12-04T09:42:12.929Z,13.85
2017-12-04T09:43:15.529Z,13.55
2017-12-04T09:44:19.166Z,14.73
2017-12-04T09:45:23.216Z,10.10
2017-12-04T09:46:25.738Z,20.85
2017-12-04T09:47:29.032Z,14.30
2017-12-04T09:48:31.699Z,11.18
2017-12-04T09:49:34.291Z,17.92
2017-12-04T09:50:37.995Z,13.50
2017-12-04T09:51:40.512Z,14.57
2017-12-04T09:52:44.102Z,13.65
2017-12-04T09:53:48.923Z,27.13
2017-12-04T09:54:53.281Z,19.83
2017-12-04T09:55:55.936Z,19.62
2017-12-04T09:56:58.834Z,19.92
2017-12-04T09:58:01.372Z,17.08
2017-12-04T09:59:05.133Z,21.83
2017-12-04T10:00:08.466Z,24.98
2017-12-04T10:01:11.744Z,24.65
2017-12-04T10:02:14.594Z,18.62
2017-12-04T10:03:17.253Z,16.00
2017-12-04T10:04:20.729Z,16.10
2017-12-04T10:05:24.025Z,20.73
2017-12-04T10:06:27.508Z,17.00
2017-12-04T10:07:30.806Z,21.27
2017-12-04T10:08:33.349Z,22.23
2017-12-04T10:09:35.889Z,22.45
2017-12-04T10:10:38.518Z,18.83
2017-12-04T10:11:41.051Z,31.08
2017-12-04T10:12:43.888Z,19.95
2017-12-04T10:13:46.425Z,23.05
2017-12-04T10:14:49.202Z,24.20
2017-12-04T10:15:51.741Z,18.75
2017-12-04T10:16:55.166Z,29.63
2017-12-04T10:17:57.721Z,18.77
2017-12-04T10:19:00.935Z,16.83
2017-12-04T10:20:03.693Z,16.65
2017-12-04T10:21:06.489Z,27.40
2017-12-04T10:22:09.939Z,17.08
2017-12-04T10:23:13.029Z,21.67
2017-12-04T10:24:15.691Z,17.05
2017-12-04T10:25:18.329Z,24.33
2017-12-04T10:26:21.737Z,14.00
2017-12-04T10:27:24.800Z,14.90
2017-12-04T10:28:27.484Z,19.40
2017-12-04T10:29:30.342Z,17.83
2017-12-04T10:30:32.973Z,14.35
2017-12-04T10:31:36.699Z,19.37
2017-12-04T10:32:40.010Z,15.38
2017-12-04T10:33:42.809Z,11.07
2017-12-04T10:34:46.165Z,12.52
2017-12-04T10:35:49.033Z,7.45
2017-12-04T10:36:51.582Z,17.92
2017-12-04T10:37:54.275Z,13.50
2017-12-04T10:40:00.143Z,17.48
2017-12-04T10:41:03.005Z,18.87
2017-12-04T10:42:05.745Z,22.92
2017-12-04T10:43:10.491Z,29.58
2017-12-04T10:44:13.574Z,14.57
2017-12-04T10:45:16.284Z,14.93
2017-12-04T10:46:19.541Z,16.92
2017-12-04T10:47:24.095Z,15.38
2017-12-04T10:48:28.213Z,24.80
2017-12-04T10:49:31.239Z,12.57
2017-12-04T10:50:34.093Z,15.13
2017-12-04T10:51:36.677Z,18.37
2017-12-04T10:52:39.416Z,20.00
2017-12-04T10:53:43.018Z,21.55
2017-12-04T10:54:45.709Z,21.33
2017-12-04T10:55:48.237Z,17.70
2017-12-04T10:56:51.763Z,15.50
2017-12-04T10:57:54.315Z,19.73
2017-12-04T10:59:03.111Z,12.95
2017-12-04T11:00:05.652Z,19.50
2017-12-04T11:01:08.421Z,21.77
2017-12-04T11:02:11.950Z,21.12
2017-12-04T11:03:15.000Z,19.15
2017-12-04T11:04:18.442Z,17.30
2017-12-04T11:05:21.004Z,22.05
2017-12-04T11:06:23.644Z,12.00
2017-12-04T11:07:26.972Z,29.87
2017-12-04T11:08:29.622Z,13.20
2017-12-04T11:09:32.569Z,13.00
2017-12-04T11:10:35.879Z,13.35
2017-12-04T11:11:38.706Z,12.18
2017-12-04T11:12:41.292Z,18.45
2017-12-04T11:13:45.124Z,16.65
2017-12-04T11:14:47.645Z,21.15
2017-12-04T11:15:51.150Z,26.58
2017-12-04T11:16:53.696Z,27.00
2017-12-04T11:17:57.082Z,11.60
2017-12-04T11:18:59.636Z,28.52
2017-12-04T11:20:02.329Z,9.60
2017-12-04T11:22:34.101Z,16.67
2017-12-04T11:23:36.666Z,10.48
2017-12-04T11:24:39.430Z,16.37
2017-12-04T11:25:43.143Z,10.88
2017-12-04T11:26:45.869Z,10.70
2017-12-04T11:27:49.106Z,6.82
2017-12-04T11:28:52.275Z,20.05
2017-12-04T11:29:54.865Z,13.48
2017-12-04T11:30:57.678Z,10.63
2017-12-04T11:32:00.221Z,15.15
2017-12-04T11:33:03.058Z,17.83
2017-12-04T11:34:05.609Z,8.02
2017-12-04T11:35:08.314Z,5.20
2017-12-04T11:36:10.996Z,10.23
2017-12-04T11:37:14.026Z,11.18
2017-12-04T11:38:16.627Z,9.93
2017-12-04T11:39:19.293Z,11.27
2017-12-04T11:40:22.366Z,6.47
2017-12-04T11:44:30.688Z,4.50
2017-12-04T11:45:33.531Z,8.38
2017-12-04T11:46:37.066Z,8.25
2017-12-04T11:47:39.627Z,13.80
2017-12-04T11:48:42.185Z,13.40
2017-12-04T11:49:44.763Z,9.27
2017-12-04T11:50:47.511Z,10.80
2017-12-04T11:51:50.217Z,7.68
2017-12-04T11:52:52.782Z,10.30
2017-12-04T11:53:55.449Z,5.93
2017-12-04T11:54:58.251Z,6.80
2017-12-04T11:56:00.815Z,9.93
2017-12-04T11:57:05.173Z,5.72
2017-12-04T11:58:07.807Z,9.50
2017-12-04T11:59:11.532Z,7.93
2017-12-04T12:00:14.402Z,6.18
2017-12-04T12:01:17.280Z,7.80
2017-12-04T12:02:19.855Z,8.15
2017-12-04T12:03:22.522Z,5.87
2017-12-04T12:04:25.180Z,9.50
2017-12-04T12:05:27.805Z,6.20
2017-12-04T12:06:30.389Z,13.05
2017-12-04T12:07:33.831Z,9.50
2017-12-04T12:08:36.378Z,12.00
2017-12-04T12:09:39.143Z,6.65
2017-12-04T12:10:41.715Z,7.53
2017-12-04T12:11:44.586Z,6.50
2017-12-04T12:12:47.268Z,8.18
2017-12-04T12:13:49.971Z,11.07
2017-12-04T12:14:53.154Z,11.95
2017-12-04T12:15:55.710Z,7.80
2017-12-04T12:16:58.492Z,14.07
2017-12-04T12:18:01.119Z,13.25
2017-12-04T12:19:04.208Z,11.40
2017-12-04T12:20:06.778Z,13.48
2017-12-04T12:21:10.154Z,11.40
2017-12-04T12:22:13.228Z,14.65
2017-12-04T12:23:17.961Z,12.35
2017-12-04T12:24:20.502Z,15.45
2017-12-04T12:25:23.212Z,9.70
2017-12-04T12:26:26.589Z,14.07
2017-12-04T12:27:30.370Z,11.98
2017-12-04T12:28:32.907Z,10.52
2017-12-04T12:29:36.359Z,8.13
2017-12-04T12:30:39.077Z,11.00
2017-12-04T12:31:41.698Z,11.57
2017-12-04T12:32:44.256Z,10.05
2017-12-04T12:33:47.147Z,8.65
2017-12-04T12:34:51.485Z,13.52
2017-12-04T12:35:54.183Z,8.88
2017-12-04T12:36:57.159Z,14.93
2017-12-04T12:38:00.834Z,7.47
2017-12-04T12:39:04.335Z,16.48
2017-12-04T12:40:07.119Z,7.05
2017-12-04T12:41:09.698Z,12.27
2017-12-04T12:42:12.674Z,13.25
2017-12-04T12:43:15.427Z,7.68
2017-12-04T12:44:18.137Z,13.02
2017-12-04T12:45:20.724Z,8.20
2017-12-04T12:46:24.228Z,9.88
2017-12-04T12:47:27.744Z,13.95
2017-12-04T12:48:30.612Z,9.73
2017-12-04T12:49:33.271Z,11.52
2017-12-04T12:50:35.931Z,13.10
2017-12-04T12:51:38.486Z,11.57
2017-12-04T12:52:43.003Z,8.77
2017-12-04T12:53:46.334Z,8.73
2017-12-04T12:54:49.288Z,8.85
2017-12-04T12:55:51.823Z,11.10
2017-12-04T12:56:54.912Z,8.23
2017-12-04T12:57:58.464Z,12.23
2017-12-04T12:59:01.240Z,12.65
2017-12-04T13:00:05.282Z,12.63
2017-12-04T13:01:08.073Z,14.50
2017-12-04T13:02:10.818Z,12.90
2017-12-04T13:03:14.948Z,7.28
2017-12-04T13:04:17.650Z,5.25
2017-12-04T13:05:20.332Z,10.80
2017-12-04T13:06:22.897Z,8.45
2017-12-04T13:07:26.894Z,10.48
2017-12-04T13:08:30.197Z,7.53
2017-12-04T13:09:32.910Z,6.07
2017-12-04T13:10:35.869Z,4.03
2017-12-04T13:11:38.620Z,10.75
2017-12-04T13:12:41.912Z,11.18
2017-12-04T13:13:45.342Z,6.35
2017-12-04T13:14:47.920Z,7.40
2017-12-04T13:15:50.478Z,5.43
2017-12-04T13:16:53.045Z,5.28
2017-12-04T13:17:55.794Z,6.60
2017-12-04T13:18:58.352Z,9.48
2017-12-04T13:20:01.221Z,5.95
2017-12-04T13:21:04.947Z,12.60
2017-12-04T13:22:07.633Z,11.65
2017-12-04T13:23:12.805Z,4.25
2017-12-04T13:24:17.120Z,6.68
2017-12-04T13:25:19.914Z,6.10
2017-12-04T13:26:22.472Z,7.93
2017-12-04T13:27:26.710Z,10.82
2017-12-04T13:28:29.497Z,9.02
2017-12-04T13:29:32.118Z,8.52
2017-12-04T13:30:34.671Z,6.43
2017-12-04T13:31:37.291Z,10.43
2017-12-04T13:32:51.978Z,5.95
2017-12-04T13:34:07.316Z,3.62
2017-12-04T13:35:21.937Z,3.95
2017-12-04T13:36:38.850Z,9.48
2017-12-04T13:37:41.445Z,6.20
2017-12-04T13:38:44.197Z,9.75
2017-12-04T13:39:48.279Z,5.18
2017-12-04T13:40:51.091Z,7.22